Aberdeen, California
Current Conditions -  °F | °C
As of 1:56 AM on Sunday 21 Dec 2014 (Local Time) from KBIH Reporting Station
Clear Clear  
Wind Chill: 24°   Ceiling: Unl
Heat Index: 30°   Visibility: 10mi
Dew Point: 26°   Wind: 6mph
Humidity: 85%   Direction: 330°NNW
Pressure: 30.21"   Gusts: NA
Location:  36.9237°N, 117.897°W
Report Text: KBIH 210956Z AUTO 33005KT 10SM CLR M01/M03 A3021 RMK AO2 SLP226 T10111033
Loading
Personal Weather Stations






























Interactive Weather Map New forecast layout! Learn more

10-Day Weather Forecast

Advertisements
Track Severe Weather on mobile